sensor_id;sensor_type;location;lat;lon;timestamp;temperature;humidity
52965;DHT22;42923;53.220;6.528;2023-09-30T00:01:57;11.00;99.90
52965;DHT22;42923;53.220;6.528;2023-09-30T00:04:24;11.00;99.90
52965;DHT22;42923;53.220;6.528;2023-09-30T00:06:49;11.00;99.90
52965;DHT22;42923;53.220;6.528;2023-09-30T00:09:15;11.00;99.90
52965;DHT22;42923;53.220;6.528;2023-09-30T00:11:41;11.00;99.90
52965;DHT22;42923;53.220;6.528;2023-09-30T00:14:07;11.00;99.90
52965;DHT22;42923;53.220;6.528;2023-09-30T00:16:32;10.90;99.90
52965;DHT22;42923;53.220;6.528;2023-09-30T00:18:58;10.90;99.90
52965;DHT22;42923;53.220;6.528;2023-09-30T00:21:24;10.90;99.90
52965;DHT22;42923;53.220;6.528;2023-09-30T00:23:50;10.90;99.90
52965;DHT22;42923;53.220;6.528;2023-09-30T00:26:16;10.90;99.90
52965;DHT22;42923;53.220;6.528;2023-09-30T00:28:45;11.00;99.90
52965;DHT22;42923;53.220;6.528;2023-09-30T00:31:11;11.00;99.90
52965;DHT22;42923;53.220;6.528;2023-09-30T00:33:37;11.00;99.90
52965;DHT22;42923;53.220;6.528;2023-09-30T00:36:08;11.10;99.90
52965;DHT22;42923;53.220;6.528;2023-09-30T00:38:35;11.00;99.90
52965;DHT22;42923;53.220;6.528;2023-09-30T00:41:01;11.00;99.90
52965;DHT22;42923;53.220;6.528;2023-09-30T00:43:26;11.00;99.90
52965;DHT22;42923;53.220;6.528;2023-09-30T00:46:02;11.10;99.90
52965;DHT22;42923;53.220;6.528;2023-09-30T00:48:34;11.00;99.90
52965;DHT22;42923;53.220;6.528;2023-09-30T00:51:01;11.00;99.90
52965;DHT22;42923;53.220;6.528;2023-09-30T00:53:28;11.00;99.90
52965;DHT22;42923;53.220;6.528;2023-09-30T00:55:55;10.90;99.90
52965;DHT22;42923;53.220;6.528;2023-09-30T00:58:23;10.90;99.90
52965;DHT22;42923;53.220;6.528;2023-09-30T01:00:52;10.90;99.90
52965;DHT22;42923;53.220;6.528;2023-09-30T01:03:18;10.80;99.90
52965;DHT22;42923;53.220;6.528;2023-09-30T01:05:45;10.80;99.90
52965;DHT22;42923;53.220;6.528;2023-09-30T01:08:11;10.80;99.90
52965;DHT22;42923;53.220;6.528;2023-09-30T01:10:37;10.70;99.90
52965;DHT22;42923;53.220;6.528;2023-09-30T01:13:02;10.70;99.90
52965;DHT22;42923;53.220;6.528;2023-09-30T01:15:31;10.80;99.90
52965;DHT22;42923;53.220;6.528;2023-09-30T01:17:57;10.80;99.90
52965;DHT22;42923;53.220;6.528;2023-09-30T01:20:23;10.90;99.90
52965;DHT22;42923;53.220;6.528;2023-09-30T01:22:49;10.90;99.90
52965;DHT22;42923;53.220;6.528;2023-09-30T01:25:15;11.00;99.90
52965;DHT22;42923;53.220;6.528;2023-09-30T01:27:41;11.00;99.90
52965;DHT22;42923;53.220;6.528;2023-09-30T01:30:07;11.10;99.90
52965;DHT22;42923;53.220;6.528;2023-09-30T01:32:37;11.10;99.90
52965;DHT22;42923;53.220;6.528;2023-09-30T01:35:02;11.10;99.90
52965;DHT22;42923;53.220;6.528;2023-09-30T01:37:28;11.10;99.90
52965;DHT22;42923;53.220;6.528;2023-09-30T01:39:54;11.10;99.90
52965;DHT22;42923;53.220;6.528;2023-09-30T01:42:20;11.20;99.90
52965;DHT22;42923;53.220;6.528;2023-09-30T01:44:46;11.20;99.90
52965;DHT22;42923;53.220;6.528;2023-09-30T01:47:12;11.20;99.90
52965;DHT22;42923;53.220;6.528;2023-09-30T01:49:38;11.20;99.90
52965;DHT22;42923;53.220;6.528;2023-09-30T01:52:04;11.20;99.90
52965;DHT22;42923;53.220;6.528;2023-09-30T01:54:29;11.30;99.90
52965;DHT22;42923;53.220;6.528;2023-09-30T01:56:55;11.20;99.90
52965;DHT22;42923;53.220;6.528;2023-09-30T01:59:21;11.20;99.90
52965;DHT22;42923;53.220;6.528;2023-09-30T02:01:48;11.20;99.90
52965;DHT22;42923;53.220;6.528;2023-09-30T02:04:16;11.30;99.90
52965;DHT22;42923;53.220;6.528;2023-09-30T02:06:43;11.20;99.90
52965;DHT22;42923;53.220;6.528;2023-09-30T02:09:08;11.20;99.90
52965;DHT22;42923;53.220;6.528;2023-09-30T02:11:35;11.20;99.90
52965;DHT22;42923;53.220;6.528;2023-09-30T02:14:04;11.20;99.90
52965;DHT22;42923;53.220;6.528;2023-09-30T02:16:33;11.10;99.90
52965;DHT22;42923;53.220;6.528;2023-09-30T02:18:58;11.20;99.90
52965;DHT22;42923;53.220;6.528;2023-09-30T02:21:24;11.20;99.90
52965;DHT22;42923;53.220;6.528;2023-09-30T02:23:50;11.20;99.90
52965;DHT22;42923;53.220;6.528;2023-09-30T02:26:21;11.20;99.90
52965;DHT22;42923;53.220;6.528;2023-09-30T02:28:48;11.20;99.90
52965;DHT22;42923;53.220;6.528;2023-09-30T02:31:13;11.20;99.90
52965;DHT22;42923;53.220;6.528;2023-09-30T02:33:39;11.20;99.90
52965;DHT22;42923;53.220;6.528;2023-09-30T02:36:08;11.20;99.90
52965;DHT22;42923;53.220;6.528;2023-09-30T02:38:37;11.30;99.90
52965;DHT22;42923;53.220;6.528;2023-09-30T02:41:03;11.30;99.90
52965;DHT22;42923;53.220;6.528;2023-09-30T02:43:29;11.30;99.90
52965;DHT22;42923;53.220;6.528;2023-09-30T02:45:55;11.30;99.90
52965;DHT22;42923;53.220;6.528;2023-09-30T02:48:21;11.30;99.90
52965;DHT22;42923;53.220;6.528;2023-09-30T02:50:46;11.20;99.90
52965;DHT22;42923;53.220;6.528;2023-09-30T02:53:13;11.30;99.90
52965;DHT22;42923;53.220;6.528;2023-09-30T02:55:40;11.30;99.90
52965;DHT22;42923;53.220;6.528;2023-09-30T02:58:10;11.20;99.90
52965;DHT22;42923;53.220;6.528;2023-09-30T03:00:37;11.30;99.90
52965;DHT22;42923;53.220;6.528;2023-09-30T03:03:04;11.30;99.90
52965;DHT22;42923;53.220;6.528;2023-09-30T03:05:30;11.30;99.90
52965;DHT22;42923;53.220;6.528;2023-09-30T03:07:59;11.40;99.90
52965;DHT22;42923;53.220;6.528;2023-09-30T03:10:26;11.40;99.90
52965;DHT22;42923;53.220;6.528;2023-09-30T03:12:53;11.40;99.90
52965;DHT22;42923;53.220;6.528;2023-09-30T03:15:22;11.40;99.90
52965;DHT22;42923;53.220;6.528;2023-09-30T03:17:49;11.30;99.90
52965;DHT22;42923;53.220;6.528;2023-09-30T03:20:14;11.40;99.90
52965;DHT22;42923;53.220;6.528;2023-09-30T03:22:44;11.30;99.90
52965;DHT22;42923;53.220;6.528;2023-09-30T03:25:13;11.30;99.90
52965;DHT22;42923;53.220;6.528;2023-09-30T03:27:40;11.40;99.90
52965;DHT22;42923;53.220;6.528;2023-09-30T03:30:07;11.20;99.90
52965;DHT22;42923;53.220;6.528;2023-09-30T03:32:34;11.20;99.90
52965;DHT22;42923;53.220;6.528;2023-09-30T03:35:10;11.10;99.90
52965;DHT22;42923;53.220;6.528;2023-09-30T03:37:37;11.10;99.90
52965;DHT22;42923;53.220;6.528;2023-09-30T03:40:04;11.00;99.90
52965;DHT22;42923;53.220;6.528;2023-09-30T03:42:40;11.00;99.90
52965;DHT22;42923;53.220;6.528;2023-09-30T03:45:08;11.00;99.90
52965;DHT22;42923;53.220;6.528;2023-09-30T03:47:37;11.00;99.90
52965;DHT22;42923;53.220;6.528;2023-09-30T03:50:04;11.00;99.90
52965;DHT22;42923;53.220;6.528;2023-09-30T03:52:33;11.00;99.90
52965;DHT22;42923;53.220;6.528;2023-09-30T03:54:59;11.00;99.90
52965;DHT22;42923;53.220;6.528;2023-09-30T03:57:26;11.00;99.90
52965;DHT22;42923;53.220;6.528;2023-09-30T03:59:53;11.00;99.90
52965;DHT22;42923;53.220;6.528;2023-09-30T04:02:19;11.00;99.90
52965;DHT22;42923;53.220;6.528;2023-09-30T04:04:44;11.00;99.90
52965;DHT22;42923;53.220;6.528;2023-09-30T04:07:12;11.00;99.90
52965;DHT22;42923;53.220;6.528;2023-09-30T04:09:38;11.00;99.90
52965;DHT22;42923;53.220;6.528;2023-09-30T04:12:04;11.00;99.90
52965;DHT22;42923;53.220;6.528;2023-09-30T04:14:30;11.00;99.90
52965;DHT22;42923;53.220;6.528;2023-09-30T04:16:55;11.10;99.90
52965;DHT22;42923;53.220;6.528;2023-09-30T04:19:21;11.10;99.90
52965;DHT22;42923;53.220;6.528;2023-09-30T04:21:47;11.20;99.90
52965;DHT22;42923;53.220;6.528;2023-09-30T04:24:13;11.20;99.90
52965;DHT22;42923;53.220;6.528;2023-09-30T04:26:39;11.20;99.90
52965;DHT22;42923;53.220;6.528;2023-09-30T04:29:06;11.30;99.90
52965;DHT22;42923;53.220;6.528;2023-09-30T04:31:33;11.30;99.90
52965;DHT22;42923;53.220;6.528;2023-09-30T04:33:59;11.30;99.90
52965;DHT22;42923;53.220;6.528;2023-09-30T04:36:24;11.20;99.90
52965;DHT22;42923;53.220;6.528;2023-09-30T04:38:50;11.30;99.90
52965;DHT22;42923;53.220;6.528;2023-09-30T04:41:16;11.30;99.90
52965;DHT22;42923;53.220;6.528;2023-09-30T04:43:42;11.20;99.90
52965;DHT22;42923;53.220;6.528;2023-09-30T04:46:09;11.30;99.90
52965;DHT22;42923;53.220;6.528;2023-09-30T04:48:35;11.20;99.90
52965;DHT22;42923;53.220;6.528;2023-09-30T04:51:01;11.30;99.90
52965;DHT22;42923;53.220;6.528;2023-09-30T04:53:30;11.30;99.90
52965;DHT22;42923;53.220;6.528;2023-09-30T04:55:56;11.20;99.90
52965;DHT22;42923;53.220;6.528;2023-09-30T04:58:22;11.20;99.90
52965;DHT22;42923;53.220;6.528;2023-09-30T05:00:49;11.20;99.90
52965;DHT22;42923;53.220;6.528;2023-09-30T05:03:15;11.30;99.90
52965;DHT22;42923;53.220;6.528;2023-09-30T05:05:41;11.30;99.90
52965;DHT22;42923;53.220;6.528;2023-09-30T05:08:07;11.30;99.90
52965;DHT22;42923;53.220;6.528;2023-09-30T05:10:33;11.40;99.90
52965;DHT22;42923;53.220;6.528;2023-09-30T05:12:59;11.20;99.90
52965;DHT22;42923;53.220;6.528;2023-09-30T05:15:24;11.40;99.90
52965;DHT22;42923;53.220;6.528;2023-09-30T05:17:51;11.20;99.90
52965;DHT22;42923;53.220;6.528;2023-09-30T05:20:17;11.10;99.90
52965;DHT22;42923;53.220;6.528;2023-09-30T05:22:43;11.20;99.90
52965;DHT22;42923;53.220;6.528;2023-09-30T05:25:13;11.20;99.90
52965;DHT22;42923;53.220;6.528;2023-09-30T05:27:41;11.20;99.90
52965;DHT22;42923;53.220;6.528;2023-09-30T05:30:07;11.20;99.90
52965;DHT22;42923;53.220;6.528;2023-09-30T05:32:33;11.20;99.90
52965;DHT22;42923;53.220;6.528;2023-09-30T05:35:04;11.10;99.90
52965;DHT22;42923;53.220;6.528;2023-09-30T05:37:30;11.10;99.90
52965;DHT22;42923;53.220;6.528;2023-09-30T05:39:56;11.10;99.90
52965;DHT22;42923;53.220;6.528;2023-09-30T05:42:22;11.10;99.90
52965;DHT22;42923;53.220;6.528;2023-09-30T05:44:48;11.20;99.90
52965;DHT22;42923;53.220;6.528;2023-09-30T05:47:14;11.10;99.90
52965;DHT22;42923;53.220;6.528;2023-09-30T05:49:41;11.10;99.90
52965;DHT22;42923;53.220;6.528;2023-09-30T05:52:07;11.10;99.90
52965;DHT22;42923;53.220;6.528;2023-09-30T05:54:33;11.10;99.90
52965;DHT22;42923;53.220;6.528;2023-09-30T05:56:58;11.10;99.90
52965;DHT22;42923;53.220;6.528;2023-09-30T05:59:27;11.10;99.90
52965;DHT22;42923;53.220;6.528;2023-09-30T06:01:53;11.10;99.90
52965;DHT22;42923;53.220;6.528;2023-09-30T06:04:19;11.10;99.90
52965;DHT22;42923;53.220;6.528;2023-09-30T06:06:46;11.20;99.90
52965;DHT22;42923;53.220;6.528;2023-09-30T06:09:12;11.20;99.90
52965;DHT22;42923;53.220;6.528;2023-09-30T06:11:37;11.20;99.90
52965;DHT22;42923;53.220;6.528;2023-09-30T06:14:03;11.10;99.90
52965;DHT22;42923;53.220;6.528;2023-09-30T06:16:32;11.10;99.90
52965;DHT22;42923;53.220;6.528;2023-09-30T06:18:58;11.40;99.90
52965;DHT22;42923;53.220;6.528;2023-09-30T06:21:25;11.20;99.90
52965;DHT22;42923;53.220;6.528;2023-09-30T06:23:54;11.10;99.90
52965;DHT22;42923;53.220;6.528;2023-09-30T06:26:20;11.20;99.90
52965;DHT22;42923;53.220;6.528;2023-09-30T06:28:47;11.20;99.90
52965;DHT22;42923;53.220;6.528;2023-09-30T06:31:14;11.30;99.90
52965;DHT22;42923;53.220;6.528;2023-09-30T06:33:40;11.20;99.90
52965;DHT22;42923;53.220;6.528;2023-09-30T06:36:11;11.20;99.90
52965;DHT22;42923;53.220;6.528;2023-09-30T06:38:40;11.20;99.90
52965;DHT22;42923;53.220;6.528;2023-09-30T06:41:07;11.30;99.90
52965;DHT22;42923;53.220;6.528;2023-09-30T06:43:34;11.30;99.90
52965;DHT22;42923;53.220;6.528;2023-09-30T06:46:09;11.40;99.90
52965;DHT22;42923;53.220;6.528;2023-09-30T06:48:36;11.40;99.90
52965;DHT22;42923;53.220;6.528;2023-09-30T06:51:02;11.50;99.90
52965;DHT22;42923;53.220;6.528;2023-09-30T06:53:28;11.60;99.90
52965;DHT22;42923;53.220;6.528;2023-09-30T06:55:54;11.70;99.90
52965;DHT22;42923;53.220;6.528;2023-09-30T06:58:20;11.70;99.90
52965;DHT22;42923;53.220;6.528;2023-09-30T07:00:52;11.80;99.90
52965;DHT22;42923;53.220;6.528;2023-09-30T07:03:21;11.90;99.90
52965;DHT22;42923;53.220;6.528;2023-09-30T07:05:46;12.10;99.90
52965;DHT22;42923;53.220;6.528;2023-09-30T07:08:16;12.20;99.90
52965;DHT22;42923;53.220;6.528;2023-09-30T07:10:43;12.40;99.90
52965;DHT22;42923;53.220;6.528;2023-09-30T07:13:09;12.40;99.90
52965;DHT22;42923;53.220;6.528;2023-09-30T07:15:35;12.50;99.90
52965;DHT22;42923;53.220;6.528;2023-09-30T07:18:00;12.60;99.90
52965;DHT22;42923;53.220;6.528;2023-09-30T07:20:26;12.80;99.90
52965;DHT22;42923;53.220;6.528;2023-09-30T07:22:53;12.70;99.90
52965;DHT22;42923;53.220;6.528;2023-09-30T07:25:19;12.90;99.90
52965;DHT22;42923;53.220;6.528;2023-09-30T07:27:45;13.00;99.90
52965;DHT22;42923;53.220;6.528;2023-09-30T07:30:11;13.00;99.90
52965;DHT22;42923;53.220;6.528;2023-09-30T07:32:38;13.10;99.90
52965;DHT22;42923;53.220;6.528;2023-09-30T07:35:04;13.30;99.90
52965;DHT22;42923;53.220;6.528;2023-09-30T07:37:30;13.10;99.90
52965;DHT22;42923;53.220;6.528;2023-09-30T07:39:55;13.20;99.90
52965;DHT22;42923;53.220;6.528;2023-09-30T07:42:21;13.30;99.90
52965;DHT22;42923;53.220;6.528;2023-09-30T07:44:48;13.30;99.90
52965;DHT22;42923;53.220;6.528;2023-09-30T07:47:14;13.40;99.90
52965;DHT22;42923;53.220;6.528;2023-09-30T07:49:40;13.40;99.90
52965;DHT22;42923;53.220;6.528;2023-09-30T07:52:06;13.50;99.90
52965;DHT22;42923;53.220;6.528;2023-09-30T07:54:32;13.40;99.90
52965;DHT22;42923;53.220;6.528;2023-09-30T07:56:58;13.70;99.90
52965;DHT22;42923;53.220;6.528;2023-09-30T07:59:25;13.70;99.90
52965;DHT22;42923;53.220;6.528;2023-09-30T08:01:51;13.80;99.90
52965;DHT22;42923;53.220;6.528;2023-09-30T08:04:18;13.90;99.90
52965;DHT22;42923;53.220;6.528;2023-09-30T08:06:44;14.00;99.90
52965;DHT22;42923;53.220;6.528;2023-09-30T08:09:13;14.00;99.90
52965;DHT22;42923;53.220;6.528;2023-09-30T08:11:39;14.10;99.90
52965;DHT22;42923;53.220;6.528;2023-09-30T08:14:05;14.20;99.90
52965;DHT22;42923;53.220;6.528;2023-09-30T08:16:36;14.20;99.90
52965;DHT22;42923;53.220;6.528;2023-09-30T08:19:02;14.40;99.90
52965;DHT22;42923;53.220;6.528;2023-09-30T08:21:29;14.40;99.90
52965;DHT22;42923;53.220;6.528;2023-09-30T08:23:54;14.50;99.90
52965;DHT22;42923;53.220;6.528;2023-09-30T08:26:20;14.60;99.90
52965;DHT22;42923;53.220;6.528;2023-09-30T08:28:46;14.70;99.90
52965;DHT22;42923;53.220;6.528;2023-09-30T08:31:12;14.80;99.90
52965;DHT22;42923;53.220;6.528;2023-09-30T08:33:37;14.90;99.90
52965;DHT22;42923;53.220;6.528;2023-09-30T08:36:06;15.10;99.90
52965;DHT22;42923;53.220;6.528;2023-09-30T08:38:36;15.00;99.90
52965;DHT22;42923;53.220;6.528;2023-09-30T08:41:02;15.10;99.90
52965;DHT22;42923;53.220;6.528;2023-09-30T08:43:28;15.30;99.90
52965;DHT22;42923;53.220;6.528;2023-09-30T08:45:56;15.30;99.90
52965;DHT22;42923;53.220;6.528;2023-09-30T08:48:23;15.50;99.90
52965;DHT22;42923;53.220;6.528;2023-09-30T08:50:51;15.60;99.90
52965;DHT22;42923;53.220;6.528;2023-09-30T08:53:18;15.70;99.90
52965;DHT22;42923;53.220;6.528;2023-09-30T08:55:46;15.80;99.90
52965;DHT22;42923;53.220;6.528;2023-09-30T08:58:12;15.90;99.90
52965;DHT22;42923;53.220;6.528;2023-09-30T09:00:39;16.00;99.90
52965;DHT22;42923;53.220;6.528;2023-09-30T09:03:08;16.10;99.90
52965;DHT22;42923;53.220;6.528;2023-09-30T09:05:34;16.30;99.90
52965;DHT22;42923;53.220;6.528;2023-09-30T09:08:00;16.30;99.90
52965;DHT22;42923;53.220;6.528;2023-09-30T09:10:25;16.40;99.90
52965;DHT22;42923;53.220;6.528;2023-09-30T09:12:58;16.50;99.90
52965;DHT22;42923;53.220;6.528;2023-09-30T09:15:26;16.50;99.90
52965;DHT22;42923;53.220;6.528;2023-09-30T09:17:52;16.60;99.90
52965;DHT22;42923;53.220;6.528;2023-09-30T09:20:23;16.70;99.90
52965;DHT22;42923;53.220;6.528;2023-09-30T09:22:55;16.70;99.90
52965;DHT22;42923;53.220;6.528;2023-09-30T09:25:22;16.80;99.90
52965;DHT22;42923;53.220;6.528;2023-09-30T09:27:49;17.00;99.90
52965;DHT22;42923;53.220;6.528;2023-09-30T09:30:26;17.00;99.90
52965;DHT22;42923;53.220;6.528;2023-09-30T09:32:58;17.10;99.90
52965;DHT22;42923;53.220;6.528;2023-09-30T09:35:24;17.20;99.90
52965;DHT22;42923;53.220;6.528;2023-09-30T09:38:03;17.40;99.90
52965;DHT22;42923;53.220;6.528;2023-09-30T09:40:35;17.40;99.90
52965;DHT22;42923;53.220;6.528;2023-09-30T09:43:02;17.50;99.90
52965;DHT22;42923;53.220;6.528;2023-09-30T09:45:32;17.60;99.90
52965;DHT22;42923;53.220;6.528;2023-09-30T09:47:59;17.70;99.90
52965;DHT22;42923;53.220;6.528;2023-09-30T09:50:25;17.80;99.90
52965;DHT22;42923;53.220;6.528;2023-09-30T09:52:54;17.90;99.90
52965;DHT22;42923;53.220;6.528;2023-09-30T09:55:22;18.20;99.90
52965;DHT22;42923;53.220;6.528;2023-09-30T09:57:49;18.40;99.90
52965;DHT22;42923;53.220;6.528;2023-09-30T10:00:16;18.50;99.90
52965;DHT22;42923;53.220;6.528;2023-09-30T10:02:45;18.60;99.90
52965;DHT22;42923;53.220;6.528;2023-09-30T10:05:12;18.70;99.90
52965;DHT22;42923;53.220;6.528;2023-09-30T10:08:03;18.80;99.90
52965;DHT22;42923;53.220;6.528;2023-09-30T10:10:30;18.90;99.90
52965;DHT22;42923;53.220;6.528;2023-09-30T10:12:57;19.10;99.90
52965;DHT22;42923;53.220;6.528;2023-09-30T10:18:20;19.30;99.90
52965;DHT22;42923;53.220;6.528;2023-09-30T10:20:46;19.50;99.90
52965;DHT22;42923;53.220;6.528;2023-09-30T10:23:29;19.80;99.90
52965;DHT22;42923;53.220;6.528;2023-09-30T10:31:13;20.60;99.90
52965;DHT22;42923;53.220;6.528;2023-09-30T10:36:35;20.90;99.90
52965;DHT22;42923;53.220;6.528;2023-09-30T10:39:02;21.20;99.90
52965;DHT22;42923;53.220;6.528;2023-09-30T10:46:51;22.70;99.90
52965;DHT22;42923;53.220;6.528;2023-09-30T10:49:30;23.20;99.90
52965;DHT22;42923;53.220;6.528;2023-09-30T10:51:59;23.60;99.90
52965;DHT22;42923;53.220;6.528;2023-09-30T10:54:30;24.00;99.90
52965;DHT22;42923;53.220;6.528;2023-09-30T10:56:58;24.40;99.90
52965;DHT22;42923;53.220;6.528;2023-09-30T10:59:30;24.60;99.90
52965;DHT22;42923;53.220;6.528;2023-09-30T11:01:56;24.90;99.90
52965;DHT22;42923;53.220;6.528;2023-09-30T11:04:22;25.20;99.90
52965;DHT22;42923;53.220;6.528;2023-09-30T11:06:48;25.20;99.90
52965;DHT22;42923;53.220;6.528;2023-09-30T11:09:21;25.10;99.90
52965;DHT22;42923;53.220;6.528;2023-09-30T11:11:50;24.70;99.90
52965;DHT22;42923;53.220;6.528;2023-09-30T11:16:52;23.70;99.90
52965;DHT22;42923;53.220;6.528;2023-09-30T11:19:19;23.30;99.90
52965;DHT22;42923;53.220;6.528;2023-09-30T11:21:49;22.90;99.90
52965;DHT22;42923;53.220;6.528;2023-09-30T11:24:16;22.80;99.90
52965;DHT22;42923;53.220;6.528;2023-09-30T11:26:42;22.50;99.90
52965;DHT22;42923;53.220;6.528;2023-09-30T11:31:44;21.60;99.90
52965;DHT22;42923;53.220;6.528;2023-09-30T11:34:10;21.20;99.90
52965;DHT22;42923;53.220;6.528;2023-09-30T11:36:50;20.80;99.90
52965;DHT22;42923;53.220;6.528;2023-09-30T11:39:27;20.40;99.90
52965;DHT22;42923;53.220;6.528;2023-09-30T11:41:54;20.10;99.90
52965;DHT22;42923;53.220;6.528;2023-09-30T11:44:21;19.90;99.90
52965;DHT22;42923;53.220;6.528;2023-09-30T11:46:57;19.70;99.90
52965;DHT22;42923;53.220;6.528;2023-09-30T11:49:30;19.50;99.90
52965;DHT22;42923;53.220;6.528;2023-09-30T11:51:57;19.30;99.90
52965;DHT22;42923;53.220;6.528;2023-09-30T11:54:35;19.20;99.90
52965;DHT22;42923;53.220;6.528;2023-09-30T11:57:07;19.10;99.90
52965;DHT22;42923;53.220;6.528;2023-09-30T11:59:37;19.00;99.90
52965;DHT22;42923;53.220;6.528;2023-09-30T12:02:03;19.00;99.90
52965;DHT22;42923;53.220;6.528;2023-09-30T12:04:31;19.00;99.90
52965;DHT22;42923;53.220;6.528;2023-09-30T12:06:57;19.00;99.90
52965;DHT22;42923;53.220;6.528;2023-09-30T12:09:23;19.00;99.90
52965;DHT22;42923;53.220;6.528;2023-09-30T12:11:52;19.10;99.90
52965;DHT22;42923;53.220;6.528;2023-09-30T12:14:19;19.30;99.90
52965;DHT22;42923;53.220;6.528;2023-09-30T12:16:46;19.50;99.90
52965;DHT22;42923;53.220;6.528;2023-09-30T12:19:13;20.00;99.90
52965;DHT22;42923;53.220;6.528;2023-09-30T12:21:41;20.50;99.90
52965;DHT22;42923;53.220;6.528;2023-09-30T12:24:08;21.00;99.90
52965;DHT22;42923;53.220;6.528;2023-09-30T12:26:39;21.70;99.90
52965;DHT22;42923;53.220;6.528;2023-09-30T12:29:06;22.40;99.90
52965;DHT22;42923;53.220;6.528;2023-09-30T12:31:34;22.90;99.90
52965;DHT22;42923;53.220;6.528;2023-09-30T12:34:00;23.40;99.90
52965;DHT22;42923;53.220;6.528;2023-09-30T12:36:26;23.90;99.90
52965;DHT22;42923;53.220;6.528;2023-09-30T12:38:51;24.10;99.90
52965;DHT22;42923;53.220;6.528;2023-09-30T12:41:17;24.00;99.90
52965;DHT22;42923;53.220;6.528;2023-09-30T12:43:44;23.80;99.90
52965;DHT22;42923;53.220;6.528;2023-09-30T12:46:11;23.60;99.90
52965;DHT22;42923;53.220;6.528;2023-09-30T12:48:39;23.40;99.90
52965;DHT22;42923;53.220;6.528;2023-09-30T12:51:05;23.20;99.90
52965;DHT22;42923;53.220;6.528;2023-09-30T12:53:33;22.90;99.90
52965;DHT22;42923;53.220;6.528;2023-09-30T12:55:59;22.60;99.90
52965;DHT22;42923;53.220;6.528;2023-09-30T12:58:25;22.40;99.90
52965;DHT22;42923;53.220;6.528;2023-09-30T13:00:55;22.00;99.90
52965;DHT22;42923;53.220;6.528;2023-09-30T13:03:20;21.70;99.90
52965;DHT22;42923;53.220;6.528;2023-09-30T13:05:46;21.40;99.90
52965;DHT22;42923;53.220;6.528;2023-09-30T13:08:12;21.20;99.90
52965;DHT22;42923;53.220;6.528;2023-09-30T13:10:38;21.00;99.90
52965;DHT22;42923;53.220;6.528;2023-09-30T13:13:04;21.00;99.90
52965;DHT22;42923;53.220;6.528;2023-09-30T13:15:29;21.20;99.90
52965;DHT22;42923;53.220;6.528;2023-09-30T13:17:55;21.60;99.90
52965;DHT22;42923;53.220;6.528;2023-09-30T13:20:21;21.90;99.90
52965;DHT22;42923;53.220;6.528;2023-09-30T13:22:47;21.80;99.90
52965;DHT22;42923;53.220;6.528;2023-09-30T13:25:13;21.70;99.90
52965;DHT22;42923;53.220;6.528;2023-09-30T13:27:39;21.70;99.90
52965;DHT22;42923;53.220;6.528;2023-09-30T13:30:07;21.70;99.90
52965;DHT22;42923;53.220;6.528;2023-09-30T13:32:34;21.80;99.90
52965;DHT22;42923;53.220;6.528;2023-09-30T13:35:04;21.90;99.90
52965;DHT22;42923;53.220;6.528;2023-09-30T13:37:31;21.80;99.90
52965;DHT22;42923;53.220;6.528;2023-09-30T13:40:03;21.80;99.90
52965;DHT22;42923;53.220;6.528;2023-09-30T13:42:30;21.70;99.90
52965;DHT22;42923;53.220;6.528;2023-09-30T13:44:56;21.70;99.90
52965;DHT22;42923;53.220;6.528;2023-09-30T13:47:26;21.70;99.90
52965;DHT22;42923;53.220;6.528;2023-09-30T13:49:52;21.80;99.90
52965;DHT22;42923;53.220;6.528;2023-09-30T13:52:18;21.90;99.90
52965;DHT22;42923;53.220;6.528;2023-09-30T13:54:44;22.10;99.90
52965;DHT22;42923;53.220;6.528;2023-09-30T13:57:09;22.30;99.90
52965;DHT22;42923;53.220;6.528;2023-09-30T13:59:36;22.50;99.90
52965;DHT22;42923;53.220;6.528;2023-09-30T14:02:04;22.60;99.90
52965;DHT22;42923;53.220;6.528;2023-09-30T14:04:31;22.60;99.90
52965;DHT22;42923;53.220;6.528;2023-09-30T14:07:03;22.50;99.90
52965;DHT22;42923;53.220;6.528;2023-09-30T14:09:29;22.40;99.90
52965;DHT22;42923;53.220;6.528;2023-09-30T14:11:55;22.30;99.90
52965;DHT22;42923;53.220;6.528;2023-09-30T14:14:21;22.20;99.90
52965;DHT22;42923;53.220;6.528;2023-09-30T14:16:46;22.00;99.90
52965;DHT22;42923;53.220;6.528;2023-09-30T14:19:13;21.80;99.90
52965;DHT22;42923;53.220;6.528;2023-09-30T14:21:40;21.60;99.90
52965;DHT22;42923;53.220;6.528;2023-09-30T14:24:06;21.30;99.90
52965;DHT22;42923;53.220;6.528;2023-09-30T14:26:32;21.10;99.90
52965;DHT22;42923;53.220;6.528;2023-09-30T14:28:59;20.90;99.90
52965;DHT22;42923;53.220;6.528;2023-09-30T14:31:25;20.70;99.90
52965;DHT22;42923;53.220;6.528;2023-09-30T14:33:50;20.60;99.90
52965;DHT22;42923;53.220;6.528;2023-09-30T14:36:17;20.50;99.90
52965;DHT22;42923;53.220;6.528;2023-09-30T14:38:44;20.50;99.90
52965;DHT22;42923;53.220;6.528;2023-09-30T14:41:10;20.50;99.90
52965;DHT22;42923;53.220;6.528;2023-09-30T14:43:38;20.50;99.90
52965;DHT22;42923;53.220;6.528;2023-09-30T14:46:04;20.50;99.90
52965;DHT22;42923;53.220;6.528;2023-09-30T14:48:30;20.40;99.90
52965;DHT22;42923;53.220;6.528;2023-09-30T14:50:56;20.30;99.90
52965;DHT22;42923;53.220;6.528;2023-09-30T14:53:22;20.20;99.90
52965;DHT22;42923;53.220;6.528;2023-09-30T14:55:48;20.10;99.90
52965;DHT22;42923;53.220;6.528;2023-09-30T14:58:14;20.10;99.90
52965;DHT22;42923;53.220;6.528;2023-09-30T15:00:40;20.00;99.90
52965;DHT22;42923;53.220;6.528;2023-09-30T15:03:06;19.90;99.90
52965;DHT22;42923;53.220;6.528;2023-09-30T15:05:32;19.80;99.90
52965;DHT22;42923;53.220;6.528;2023-09-30T15:07:59;19.70;99.90
52965;DHT22;42923;53.220;6.528;2023-09-30T15:10:28;19.60;99.90
52965;DHT22;42923;53.220;6.528;2023-09-30T15:12:54;19.50;99.90
52965;DHT22;42923;53.220;6.528;2023-09-30T15:15:20;19.40;99.90
52965;DHT22;42923;53.220;6.528;2023-09-30T15:17:45;19.30;99.90
52965;DHT22;42923;53.220;6.528;2023-09-30T15:20:12;19.20;99.90
52965;DHT22;42923;53.220;6.528;2023-09-30T15:22:37;19.10;99.90
52965;DHT22;42923;53.220;6.528;2023-09-30T15:25:04;19.10;99.90
52965;DHT22;42923;53.220;6.528;2023-09-30T15:27:30;19.00;99.90
52965;DHT22;42923;53.220;6.528;2023-09-30T15:29:59;18.90;99.90
52965;DHT22;42923;53.220;6.528;2023-09-30T15:32:24;18.80;99.90
52965;DHT22;42923;53.220;6.528;2023-09-30T15:34:50;18.80;99.90
52965;DHT22;42923;53.220;6.528;2023-09-30T15:37:16;18.70;99.90
52965;DHT22;42923;53.220;6.528;2023-09-30T15:39:42;18.60;99.90
52965;DHT22;42923;53.220;6.528;2023-09-30T15:42:08;18.60;99.90
52965;DHT22;42923;53.220;6.528;2023-09-30T15:44:35;18.50;99.90
52965;DHT22;42923;53.220;6.528;2023-09-30T15:47:01;18.40;99.90
52965;DHT22;42923;53.220;6.528;2023-09-30T15:49:26;18.30;99.90
52965;DHT22;42923;53.220;6.528;2023-09-30T15:51:52;18.20;99.90